Time;durP1;ratioP1;P1;durP2;ratioP2;P2;SDS_P1;SDS_P2;PMS_P1;PMS_P2;Temp;Humidity;BMP_temperature;BMP_pressure;BME280_temperature;BME280_humidity;BME280_pressure;Samples;Min_cycle;Max_cycle;Signal;HPM_P1;HPM_P2
2023/08/15 00:01:21;;;;;;;6.70;2.40;;;15.70;99.90;;;;;;4970631;28;20031;-77
2023/08/15 00:03:47;;;;;;;4.75;2.00;;;15.70;99.90;;;;;;4970730;28;20106;-77
2023/08/15 00:06:13;;;;;;;3.90;2.20;;;15.70;99.90;;;;;;4970875;28;20105;-76
2023/08/15 00:08:39;;;;;;;9.38;2.08;;;15.80;99.90;;;;;;4970820;28;20100;-76
2023/08/15 00:11:05;;;;;;;4.95;2.22;;;15.80;99.90;;;;;;4970538;28;20347;-76
2023/08/15 00:13:30;;;;;;;5.13;2.20;;;15.70;99.90;;;;;;4973390;28;20456;-76
2023/08/15 00:15:56;;;;;;;3.75;2.40;;;15.70;99.90;;;;;;4974123;28;20353;-76
2023/08/15 00:18:22;;;;;;;5.25;2.28;;;15.70;99.90;;;;;;4974152;28;20038;-78
2023/08/15 00:20:48;;;;;;;6.82;2.00;;;15.70;99.90;;;;;;4973727;28;20455;-78
2023/08/15 00:23:14;;;;;;;3.95;1.98;;;15.70;99.90;;;;;;4974466;28;20058;-76
2023/08/15 00:25:42;;;;;;;6.00;2.25;;;15.60;99.90;;;;;;4974671;28;20035;-76
2023/08/15 00:28:08;;;;;;;4.65;1.77;;;15.60;99.90;;;;;;4973781;28;20061;-75
2023/08/15 00:30:34;;;;;;;2.80;1.63;;;15.50;99.90;;;;;;4974459;28;20062;-76
2023/08/15 00:32:59;;;;;;;3.38;1.70;;;15.50;99.90;;;;;;4973675;28;20069;-75
2023/08/15 00:35:25;;;;;;;6.45;1.92;;;15.40;99.90;;;;;;4974677;28;20081;-76
2023/08/15 00:37:51;;;;;;;4.95;1.90;;;15.40;99.90;;;;;;4974151;28;20054;-76
2023/08/15 00:40:17;;;;;;;6.25;2.28;;;15.30;99.90;;;;;;4974766;28;20042;-75
2023/08/15 00:42:42;;;;;;;5.47;1.88;;;15.30;99.90;;;;;;4974073;28;20022;-77
2023/08/15 00:45:08;;;;;;;5.57;2.53;;;15.30;99.90;;;;;;4974176;28;20026;-76
2023/08/15 00:47:34;;;;;;;4.38;2.08;;;15.30;99.90;;;;;;4974363;28;20034;-76
2023/08/15 00:50:02;;;;;;;5.55;2.28;;;15.40;99.90;;;;;;4973698;28;20069;-76
2023/08/15 00:52:28;;;;;;;5.22;2.00;;;15.40;99.90;;;;;;4974383;28;20082;-76
2023/08/15 00:54:54;;;;;;;3.55;1.80;;;15.40;99.90;;;;;;4973823;28;20073;-77
2023/08/15 00:57:21;;;;;;;4.70;2.33;;;15.50;99.90;;;;;;4974009;28;20038;-76
2023/08/15 00:59:47;;;;;;;5.32;2.00;;;15.50;99.90;;;;;;4973856;28;20121;-76
2023/08/15 01:02:13;;;;;;;4.63;1.95;;;15.50;99.90;;;;;;4974237;28;20042;-76
2023/08/15 01:04:40;;;;;;;6.20;2.20;;;15.40;99.90;;;;;;4973752;28;20207;-76
2023/08/15 01:07:06;;;;;;;6.30;2.13;;;15.40;99.90;;;;;;4973495;28;20528;-76
2023/08/15 01:09:32;;;;;;;3.25;1.77;;;15.50;99.90;;;;;;4973995;28;20170;-76
2023/08/15 01:12:16;;;;;;;4.25;1.80;;;15.40;99.90;;;;;;4973156;28;20105;-76
2023/08/15 01:15:03;;;;;;;4.20;1.90;;;15.40;99.90;;;;;;4973733;28;20030;-76
2023/08/15 01:17:45;;;;;;;2.75;1.83;;;15.30;99.90;;;;;;4973757;28;20034;-76
2023/08/15 01:20:15;;;;;;;2.90;1.80;;;15.30;99.90;;;;;;4972899;28;20035;-76
2023/08/15 01:22:44;;;;;;;5.22;1.83;;;15.40;99.90;;;;;;4973907;28;20070;-76
2023/08/15 01:25:10;;;;;;;3.13;1.70;;;15.40;99.90;;;;;;4971087;28;20187;-76
2023/08/15 01:27:36;;;;;;;3.67;1.60;;;15.40;99.90;;;;;;4971911;28;20519;-76
2023/08/15 01:30:03;;;;;;;2.92;2.08;;;15.40;99.90;;;;;;4972881;28;20076;-76
2023/08/15 01:32:43;;;;;;;4.93;1.58;;;15.40;99.90;;;;;;4973461;28;20034;-76
2023/08/15 01:35:14;;;;;;;1.67;1.58;;;15.40;99.90;;;;;;4973130;28;20062;-76
2023/08/15 01:37:43;;;;;;;4.88;1.92;;;15.40;99.90;;;;;;4973041;28;20169;-75
2023/08/15 01:40:14;;;;;;;4.15;1.90;;;15.40;99.90;;;;;;4972050;28;20187;-76
2023/08/15 01:42:40;;;;;;;3.53;1.60;;;15.40;99.90;;;;;;4973137;28;20031;-74
2023/08/15 01:45:08;;;;;;;3.67;1.73;;;15.50;99.90;;;;;;4972313;28;20022;-76
2023/08/15 01:47:34;;;;;;;4.05;1.80;;;15.40;99.90;;;;;;4972541;28;20058;-76
2023/08/15 01:50:01;;;;;;;5.70;2.00;;;15.40;99.90;;;;;;4971869;28;20050;-75
2023/08/15 01:52:27;;;;;;;6.22;1.92;;;15.40;99.90;;;;;;4973137;28;20354;-76
2023/08/15 01:54:52;;;;;;;4.63;1.80;;;15.30;99.90;;;;;;4971126;28;20438;-77
2023/08/15 01:57:18;;;;;;;2.42;1.65;;;15.30;99.90;;;;;;4973085;28;20022;-76
2023/08/15 01:59:44;;;;;;;2.90;1.73;;;15.30;99.90;;;;;;4972995;28;20050;-75
2023/08/15 02:02:12;;;;;;;3.03;2.10;;;15.30;99.90;;;;;;4972935;28;20049;-75
2023/08/15 02:04:38;;;;;;;4.90;1.75;;;15.30;99.90;;;;;;4972645;28;20050;-76
2023/08/15 02:07:04;;;;;;;4.43;1.90;;;15.30;99.90;;;;;;4972143;28;20145;-75
2023/08/15 02:09:30;;;;;;;6.68;2.03;;;15.20;99.90;;;;;;4972681;28;20038;-75
2023/08/15 02:11:55;;;;;;;4.10;2.00;;;15.20;99.90;;;;;;4972019;28;20050;-76
2023/08/15 02:14:21;;;;;;;5.90;2.45;;;15.30;99.90;;;;;;4972705;28;20061;-75
2023/08/15 02:16:47;;;;;;;6.45;1.80;;;15.30;99.90;;;;;;4972557;28;20157;-77
2023/08/15 02:19:13;;;;;;;6.97;2.10;;;15.30;99.90;;;;;;4970283;28;20027;-76
2023/08/15 02:21:38;;;;;;;6.65;2.03;;;15.30;99.90;;;;;;4972461;28;20041;-76
2023/08/15 02:24:04;;;;;;;6.43;2.10;;;15.30;99.90;;;;;;4971727;28;20425;-76
2023/08/15 02:26:30;;;;;;;5.07;2.10;;;15.30;99.90;;;;;;4972329;28;20027;-76
2023/08/15 02:28:56;;;;;;;5.55;2.20;;;15.30;99.90;;;;;;4971554;28;20134;-77
2023/08/15 02:31:25;;;;;;;3.90;2.22;;;15.30;99.90;;;;;;4971309;28;20050;-77
2023/08/15 02:33:50;;;;;;;4.97;2.08;;;15.30;99.90;;;;;;4972139;28;20026;-76
2023/08/15 02:36:16;;;;;;;6.72;2.20;;;15.30;99.90;;;;;;4970158;28;20027;-76
2023/08/15 02:38:42;;;;;;;5.63;2.50;;;15.30;99.90;;;;;;4972484;28;20050;-76
2023/08/15 02:41:07;;;;;;;3.72;2.38;;;15.30;99.90;;;;;;4972331;28;20129;-77
2023/08/15 02:43:33;;;;;;;4.20;1.90;;;15.40;99.90;;;;;;4971712;28;20030;-76
2023/08/15 02:45:59;;;;;;;6.88;2.63;;;15.30;99.90;;;;;;4971648;28;20030;-76
2023/08/15 02:48:24;;;;;;;7.32;2.30;;;15.30;99.90;;;;;;4971999;28;20053;-76
2023/08/15 02:50:50;;;;;;;5.20;2.40;;;15.30;99.90;;;;;;4971675;28;20034;-75
2023/08/15 02:53:16;;;;;;;5.57;2.67;;;15.30;99.90;;;;;;4971400;28;20070;-75
2023/08/15 02:55:42;;;;;;;5.40;2.58;;;15.20;99.90;;;;;;4971873;28;20029;-75
2023/08/15 02:58:07;;;;;;;5.88;2.20;;;15.20;99.90;;;;;;4971414;28;20029;-75
2023/08/15 03:00:35;;;;;;;6.63;2.85;;;15.20;99.90;;;;;;4971905;28;20125;-75
2023/08/15 03:03:01;;;;;;;3.65;2.08;;;15.20;99.90;;;;;;4971311;28;20035;-74
2023/08/15 03:05:27;;;;;;;9.35;2.90;;;15.20;99.90;;;;;;4972056;28;20050;-76
2023/08/15 03:07:52;;;;;;;3.25;2.42;;;15.20;99.90;;;;;;4972238;28;20037;-76
2023/08/15 03:10:18;;;;;;;3.80;2.38;;;15.20;99.90;;;;;;4971386;28;20116;-76
2023/08/15 03:12:44;;;;;;;5.38;2.47;;;15.20;99.90;;;;;;4972062;28;20031;-75
2023/08/15 03:15:10;;;;;;;5.70;2.42;;;15.20;99.90;;;;;;4971018;28;20469;-75
2023/08/15 03:17:35;;;;;;;4.63;2.30;;;15.20;99.90;;;;;;4971574;28;20027;-75
2023/08/15 03:20:01;;;;;;;7.55;2.50;;;15.20;99.90;;;;;;4970846;28;20034;-74
2023/08/15 03:22:27;;;;;;;4.50;2.65;;;15.30;99.90;;;;;;4971346;28;20101;-75
2023/08/15 03:24:52;;;;;;;5.65;2.15;;;15.30;99.90;;;;;;4971526;28;20428;-76
2023/08/15 03:27:18;;;;;;;4.82;2.35;;;15.20;99.90;;;;;;4969774;28;20117;-75
2023/08/15 03:29:44;;;;;;;4.72;2.10;;;15.30;99.90;;;;;;4969947;28;20035;-75
2023/08/15 03:32:09;;;;;;;8.45;2.63;;;15.30;99.90;;;;;;4970727;28;20034;-75
2023/08/15 03:34:35;;;;;;;6.35;2.30;;;15.30;99.90;;;;;;4970020;28;20026;-76
2023/08/15 03:37:01;;;;;;;5.20;2.33;;;15.30;99.90;;;;;;4969262;28;20027;-76
2023/08/15 03:39:27;;;;;;;3.88;2.35;;;15.30;99.90;;;;;;4971646;28;20510;-76
2023/08/15 03:41:52;;;;;;;5.82;2.20;;;15.30;99.90;;;;;;4970980;28;20066;-76
2023/08/15 03:44:18;;;;;;;4.28;2.20;;;15.30;99.90;;;;;;4970934;28;20102;-76
2023/08/15 03:46:45;;;;;;;7.75;2.67;;;15.40;99.90;;;;;;4971512;28;20396;-76
2023/08/15 03:49:11;;;;;;;5.13;2.33;;;15.30;99.90;;;;;;4973232;28;20451;-77
2023/08/15 03:51:37;;;;;;;2.92;2.08;;;15.30;99.90;;;;;;4975120;28;20027;-75
2023/08/15 03:54:03;;;;;;;7.85;2.97;;;15.40;99.90;;;;;;4973083;28;20031;-75
2023/08/15 03:56:28;;;;;;;8.70;2.75;;;15.40;99.90;;;;;;4975116;28;20039;-75
2023/08/15 03:58:54;;;;;;;4.57;2.10;;;15.40;99.90;;;;;;4975155;28;20029;-76
2023/08/15 04:01:20;;;;;;;6.90;2.55;;;15.30;99.90;;;;;;4984934;28;20524;-75
2023/08/15 04:03:50;;;;;;;3.97;2.50;;;15.30;99.90;;;;;;4994461;28;20122;-75
2023/08/15 04:06:16;;;;;;;4.15;2.30;;;15.40;99.90;;;;;;4992360;28;20030;-77
2023/08/15 04:08:43;;;;;;;3.47;2.38;;;15.30;99.90;;;;;;4994468;28;20033;-75
2023/08/15 04:11:08;;;;;;;5.53;2.58;;;15.30;99.90;;;;;;4992737;28;20124;-76
2023/08/15 04:13:34;;;;;;;6.95;2.30;;;15.40;99.90;;;;;;4994710;28;20098;-76
2023/08/15 04:16:00;;;;;;;4.63;2.17;;;15.40;99.90;;;;;;4994639;28;20039;-76
2023/08/15 04:18:25;;;;;;;6.13;2.60;;;15.40;99.90;;;;;;4993001;28;20041;-76
2023/08/15 04:20:51;;;;;;;6.93;2.67;;;15.40;99.90;;;;;;4994623;28;20117;-76
2023/08/15 04:23:17;;;;;;;4.63;2.25;;;15.40;99.90;;;;;;4994082;28;20026;-76
2023/08/15 04:25:42;;;;;;;4.95;2.30;;;15.40;99.90;;;;;;4994310;28;20022;-75
2023/08/15 04:28:08;;;;;;;6.95;2.10;;;15.40;99.90;;;;;;4993821;28;20029;-76
2023/08/15 04:30:34;;;;;;;4.22;2.10;;;15.40;99.90;;;;;;4994353;28;20133;-76
2023/08/15 04:33:00;;;;;;;7.10;2.17;;;15.40;99.90;;;;;;4994359;28;20415;-77
2023/08/15 04:35:26;;;;;;;4.72;2.40;;;15.40;99.90;;;;;;4994099;28;20053;-74
2023/08/15 04:37:52;;;;;;;8.07;2.45;;;15.40;99.90;;;;;;4994568;28;20060;-77
2023/08/15 04:40:32;;;;;;;9.98;2.33;;;15.50;99.90;;;;;;4992609;28;20102;-77
2023/08/15 04:42:58;;;;;;;4.32;2.50;;;15.40;99.90;;;;;;4992849;28;20368;-75
2023/08/15 04:45:24;;;;;;;5.00;1.90;;;15.40;99.90;;;;;;4992994;28;20037;-76
2023/08/15 04:47:50;;;;;;;5.93;2.63;;;15.50;99.90;;;;;;4994816;28;20129;-76
2023/08/15 04:50:16;;;;;;;4.78;2.10;;;15.50;99.90;;;;;;4993661;28;20033;-76
2023/08/15 04:52:42;;;;;;;6.30;2.20;;;15.50;99.90;;;;;;4994465;28;20471;-78
2023/08/15 04:55:10;;;;;;;6.43;2.10;;;15.50;99.90;;;;;;4992313;28;20026;-77
2023/08/15 04:57:39;;;;;;;6.53;2.22;;;15.50;99.90;;;;;;4994385;28;20026;-77
2023/08/15 05:00:08;;;;;;;3.80;2.10;;;15.50;99.90;;;;;;4992977;28;20036;-77
2023/08/15 05:02:38;;;;;;;5.78;2.20;;;15.50;99.90;;;;;;4994670;28;20034;-76
2023/08/15 05:05:11;;;;;;;3.22;2.15;;;15.50;99.90;;;;;;4993751;28;20564;-77
2023/08/15 05:07:37;;;;;;;;;;;15.50;99.90;;;;;;4994213;28;20034;-76
2023/08/15 05:10:03;;;;;;;6.20;2.08;;;15.50;99.90;;;;;;4993818;28;19963;-77
2023/08/15 05:12:28;;;;;;;5.78;2.20;;;15.50;99.90;;;;;;4994275;28;20084;-77
2023/08/15 05:14:54;;;;;;;4.40;1.95;;;15.40;99.90;;;;;;4994256;28;20357;-77
2023/08/15 05:17:20;;;;;;;6.50;2.10;;;15.40;99.90;;;;;;4992361;28;20026;-77
2023/08/15 05:19:46;;;;;;;4.97;2.35;;;15.50;99.90;;;;;;4995328;28;20053;-76
2023/08/15 05:22:11;;;;;;;10.77;1.95;;;15.50;99.90;;;;;;4994225;28;20451;-75
2023/08/15 05:24:37;;;;;;;7.60;1.75;;;15.50;99.90;;;;;;4996046;28;20046;-76
2023/08/15 05:27:03;;;;;;;5.20;2.05;;;15.40;99.90;;;;;;4995084;28;20035;-77
2023/08/15 05:29:28;;;;;;;4.47;1.88;;;15.40;99.90;;;;;;4996055;28;20472;-75
2023/08/15 05:31:54;;;;;;;3.45;1.48;;;15.40;99.90;;;;;;4993120;28;20088;-76
2023/08/15 05:34:20;;;;;;;2.88;1.67;;;15.40;99.90;;;;;;4990952;28;20083;-76
2023/08/15 05:36:46;;;;;;;1.60;1.30;;;15.40;99.90;;;;;;4992383;28;20500;-77
2023/08/15 05:39:11;;;;;;;6.18;1.88;;;15.40;99.90;;;;;;4992102;28;20058;-76
2023/08/15 05:41:37;;;;;;;3.28;1.80;;;15.50;99.90;;;;;;4992358;28;20076;-77
2023/08/15 05:44:03;;;;;;;4.78;2.13;;;15.50;99.90;;;;;;4992460;28;20022;-77
2023/08/15 05:46:29;;;;;;;7.47;1.95;;;15.50;99.90;;;;;;4991706;28;20172;-75
2023/08/15 05:48:55;;;;;;;3.47;1.75;;;15.50;99.90;;;;;;4992010;28;20033;-76
2023/08/15 05:51:20;;;;;;;5.47;2.10;;;15.50;99.90;;;;;;4991739;28;20109;-75
2023/08/15 05:53:46;;;;;;;2.88;1.77;;;15.40;99.90;;;;;;4992073;28;20029;-76
2023/08/15 05:56:12;;;;;;;3.70;1.63;;;15.50;99.90;;;;;;4991581;28;20034;-77
2023/08/15 05:58:37;;;;;;;4.50;1.90;;;15.50;99.90;;;;;;4992274;28;20030;-77
2023/08/15 06:01:04;;;;;;;5.38;1.65;;;15.60;99.90;;;;;;4992094;28;20033;-75
2023/08/15 06:03:30;;;;;;;4.47;2.03;;;15.60;99.90;;;;;;4991858;28;20039;-75
2023/08/15 06:05:56;;;;;;;2.83;1.42;;;15.60;99.90;;;;;;4992113;28;20029;-75
2023/08/15 06:08:22;;;;;;;3.60;1.55;;;15.60;99.90;;;;;;4990262;28;20038;-74
2023/08/15 06:10:48;;;;;;;3.75;2.00;;;15.50;99.90;;;;;;4992445;28;20364;-75
2023/08/15 06:13:13;;;;;;;6.57;1.80;;;15.60;99.90;;;;;;4991517;28;20443;-76
2023/08/15 06:15:39;;;;;;;4.97;1.85;;;15.50;99.90;;;;;;4992452;28;20034;-76
2023/08/15 06:18:05;;;;;;;4.78;1.92;;;15.50;99.90;;;;;;4991861;28;20064;-75
2023/08/15 06:20:31;;;;;;;4.00;1.92;;;15.60;99.90;;;;;;4991131;28;20085;-74
2023/08/15 06:22:57;;;;;;;5.28;1.48;;;15.60;99.90;;;;;;4991458;28;20034;-74
2023/08/15 06:25:22;;;;;;;5.95;2.22;;;15.60;99.90;;;;;;4990750;28;20083;-75
2023/08/15 06:27:48;;;;;;;4.35;1.70;;;15.70;99.90;;;;;;4991167;28;20019;-75
2023/08/15 06:30:14;;;;;;;5.90;1.77;;;15.80;99.90;;;;;;4991565;28;20034;-74
2023/08/15 06:32:39;;;;;;;4.82;2.10;;;15.80;99.90;;;;;;4991471;28;20475;-74
2023/08/15 06:35:06;;;;;;;4.50;1.67;;;15.80;99.90;;;;;;4991894;28;20113;-77
2023/08/15 06:37:32;;;;;;;2.83;1.50;;;16.00;99.90;;;;;;4990865;28;20033;-77
2023/08/15 06:39:57;;;;;;;5.35;1.45;;;16.10;99.90;;;;;;4991369;28;20046;-76
2023/08/15 06:42:23;;;;;;;1.92;1.50;;;16.10;99.90;;;;;;4991566;28;20038;-76
2023/08/15 06:44:49;;;;;;;5.03;1.52;;;16.20;99.90;;;;;;4989481;28;20117;-76
2023/08/15 06:47:15;;;;;;;4.63;1.70;;;16.10;99.90;;;;;;4990738;28;20030;-75
2023/08/15 06:49:40;;;;;;;5.28;1.80;;;16.20;99.90;;;;;;4991075;28;20030;-76
2023/08/15 06:52:09;;;;;;;3.13;1.58;;;16.20;99.90;;;;;;4991361;28;20031;-76
2023/08/15 06:54:36;;;;;;;3.75;1.38;;;16.20;99.90;;;;;;4990872;28;20071;-76
2023/08/15 06:57:02;;;;;;;3.45;1.40;;;16.20;99.90;;;;;;4991203;28;20030;-76
2023/08/15 06:59:28;;;;;;;3.20;1.55;;;16.20;99.90;;;;;;4990499;28;20105;-75
2023/08/15 07:01:53;;;;;;;1.92;1.13;;;16.30;99.90;;;;;;4991269;28;20397;-76
2023/08/15 07:04:20;;;;;;;5.03;1.77;;;16.40;99.90;;;;;;4991003;28;20030;-74
2023/08/15 07:06:46;;;;;;;4.43;1.65;;;16.40;99.90;;;;;;4991032;28;20027;-76
2023/08/15 07:09:12;;;;;;;4.10;1.20;;;16.50;99.90;;;;;;4990440;28;20027;-77
2023/08/15 07:11:37;;;;;;;4.55;1.30;;;16.50;99.90;;;;;;4991161;28;20115;-76
2023/08/15 07:14:03;;;;;;;4.97;1.77;;;16.50;99.90;;;;;;4989560;28;20372;-75
2023/08/15 07:16:29;;;;;;;2.30;1.45;;;16.50;99.90;;;;;;4990344;28;20122;-76
2023/08/15 07:18:55;;;;;;;2.35;1.52;;;16.60;99.90;;;;;;4991535;28;20041;-77
2023/08/15 07:21:20;;;;;;;4.22;1.50;;;16.70;99.90;;;;;;4990997;28;20109;-77
2023/08/15 07:23:46;;;;;;;3.55;1.83;;;16.70;99.90;;;;;;4994760;28;20026;-76
2023/08/15 07:26:13;;;;;;;4.85;1.83;;;16.70;99.90;;;;;;4995236;28;20345;-78
2023/08/15 07:28:39;;;;;;;3.78;1.55;;;16.70;99.90;;;;;;4995904;28;20603;-77
2023/08/15 07:31:05;;;;;;;2.50;1.05;;;16.50;99.90;;;;;;4995707;28;20030;-77
2023/08/15 07:33:31;;;;;;;4.53;1.45;;;16.60;99.90;;;;;;4993824;28;20038;-76
2023/08/15 07:35:57;;;;;;;3.83;1.52;;;16.50;99.90;;;;;;4985591;28;20035;-76
2023/08/15 07:38:23;;;;;;;3.83;1.50;;;16.50;99.90;;;;;;4983283;28;20150;-76
2023/08/15 07:40:49;;;;;;;3.90;1.38;;;16.50;99.90;;;;;;4986649;28;20057;-75
2023/08/15 07:43:15;;;;;;;3.50;1.60;;;16.60;99.90;;;;;;4985909;28;20030;-76
2023/08/15 07:45:40;;;;;;;7.25;2.05;;;16.70;99.90;;;;;;4993867;28;20355;-76
2023/08/15 07:48:06;;;;;;;3.67;1.73;;;16.80;99.90;;;;;;4992201;28;20081;-76
2023/08/15 07:50:32;;;;;;;4.85;1.75;;;16.80;99.90;;;;;;4994309;28;20084;-76
2023/08/15 07:52:58;;;;;;;2.17;1.85;;;16.90;99.90;;;;;;4994112;28;20105;-76
2023/08/15 07:55:24;;;;;;;3.80;1.77;;;16.90;99.90;;;;;;4994024;28;20424;-75
2023/08/15 07:57:50;;;;;;;4.88;1.92;;;16.90;99.90;;;;;;4994136;28;20415;-77
2023/08/15 08:00:16;;;;;;;5.25;2.08;;;17.00;99.90;;;;;;4993075;28;20245;-77
2023/08/15 08:02:43;;;;;;;7.32;2.08;;;16.90;99.90;;;;;;4994220;28;20061;-76
2023/08/15 08:05:11;;;;;;;4.30;2.00;;;16.90;99.90;;;;;;4993863;28;20092;-75
2023/08/15 08:07:39;;;;;;;4.95;1.80;;;16.80;99.90;;;;;;4992841;28;20038;-76
2023/08/15 08:10:06;;;;;;;3.97;2.17;;;16.90;99.90;;;;;;4993663;28;20088;-76
2023/08/15 08:12:33;;;;;;;5.60;2.30;;;16.90;99.90;;;;;;4991781;28;20525;-75
2023/08/15 08:14:59;;;;;;;5.60;2.47;;;16.90;99.90;;;;;;4993750;28;20030;-76
2023/08/15 08:17:25;;;;;;;7.88;2.88;;;16.80;99.90;;;;;;4991409;28;20034;-76
2023/08/15 08:19:51;;;;;;;5.68;2.83;;;16.70;99.90;;;;;;4993352;28;20045;-76
2023/08/15 08:22:17;;;;;;;6.07;3.33;;;16.70;99.90;;;;;;4993183;28;20474;-78
2023/08/15 08:24:42;;;;;;;7.43;3.00;;;16.80;99.90;;;;;;4993617;28;20022;-77
2023/08/15 08:27:08;;;;;;;5.80;3.47;;;16.80;99.90;;;;;;4992240;28;20023;-76
2023/08/15 08:29:34;;;;;;;4.63;2.95;;;16.80;99.90;;;;;;4971624;28;20094;-75
2023/08/15 08:32:00;;;;;;;7.78;3.20;;;16.90;99.90;;;;;;4973922;28;20042;-75
2023/08/15 08:34:26;;;;;;;6.30;2.83;;;17.00;99.90;;;;;;4971945;28;20126;-75
2023/08/15 08:36:51;;;;;;;4.00;2.40;;;17.00;99.90;;;;;;4973909;28;20027;-76
2023/08/15 08:39:18;;;;;;;5.63;2.78;;;17.10;99.90;;;;;;4973207;28;20396;-75
2023/08/15 08:41:44;;;;;;;5.45;2.97;;;17.10;99.90;;;;;;4974141;28;20054;-76
2023/08/15 08:44:12;;;;;;;5.00;2.80;;;17.10;99.90;;;;;;4973434;28;20035;-77
2023/08/15 08:46:40;;;;;;;4.53;2.30;;;17.20;99.90;;;;;;4973199;28;20496;-76
2023/08/15 08:49:07;;;;;;;6.03;2.75;;;17.30;99.90;;;;;;4974050;28;20023;-76
2023/08/15 08:51:34;;;;;;;4.57;2.17;;;17.40;99.90;;;;;;4972925;28;20031;-76
2023/08/15 08:54:00;;;;;;;4.60;2.45;;;17.40;99.90;;;;;;4982941;28;20042;-76
2023/08/15 08:56:28;;;;;;;4.38;1.90;;;17.60;99.90;;;;;;4992611;28;20097;-76
2023/08/15 08:59:17;;;;;;;3.80;2.08;;;17.70;99.90;;;;;;4992728;28;20069;-76
2023/08/15 09:01:44;;;;;;;4.78;1.83;;;17.80;99.90;;;;;;4992741;28;20396;-75
2023/08/15 09:04:10;;;;;;;3.35;1.75;;;17.80;99.90;;;;;;4992140;28;20125;-77
2023/08/15 09:06:36;;;;;;;2.22;1.70;;;17.80;99.90;;;;;;4991801;28;20458;-76
2023/08/15 09:09:03;;;;;;;5.07;1.95;;;17.80;99.90;;;;;;4992670;28;20038;-76
2023/08/15 09:11:36;;;;;;;3.45;1.85;;;17.60;99.90;;;;;;4990541;28;20034;-76
2023/08/15 09:14:03;;;;;;;2.65;1.98;;;17.70;99.90;;;;;;4992149;28;20030;-76
2023/08/15 09:16:32;;;;;;;3.38;2.00;;;17.80;99.90;;;;;;4991638;28;20031;-76
2023/08/15 09:19:02;;;;;;;6.35;2.10;;;17.90;99.90;;;;;;4992629;28;20062;-76
2023/08/15 09:21:29;;;;;;;2.55;1.85;;;18.00;99.90;;;;;;4991325;28;20037;-75
2023/08/15 09:24:00;;;;;;;3.67;2.22;;;18.20;99.90;;;;;;4990858;28;20072;-75
2023/08/15 09:26:31;;;;;;;3.70;2.10;;;18.20;99.90;;;;;;4991981;28;20065;-76
2023/08/15 09:28:57;;;;;;;3.38;2.10;;;18.20;99.90;;;;;;4992491;28;20066;-76
2023/08/15 09:31:23;;;;;;;4.70;2.20;;;18.20;99.90;;;;;;4991572;28;20062;-76
2023/08/15 09:33:48;;;;;;;5.43;2.40;;;18.10;99.90;;;;;;4992309;28;20034;-75
2023/08/15 09:36:15;;;;;;;4.35;2.40;;;18.00;99.90;;;;;;4991837;28;20525;-77
2023/08/15 09:38:41;;;;;;;3.13;2.10;;;18.00;99.90;;;;;;4990293;28;20050;-78
2023/08/15 09:41:10;;;;;;;6.32;2.53;;;18.10;99.90;;;;;;4991994;28;20042;-75
2023/08/15 09:43:47;;;;;;;3.58;2.00;;;18.20;99.90;;;;;;4991400;28;20412;-75
2023/08/15 09:46:13;;;;;;;3.88;2.05;;;18.40;99.90;;;;;;4989753;28;20105;-76
2023/08/15 09:48:39;;;;;;;5.43;2.03;;;18.40;99.90;;;;;;4990842;28;20157;-77
2023/08/15 09:51:07;;;;;;;6.43;2.40;;;18.50;99.90;;;;;;4991466;28;20030;-76
2023/08/15 09:53:34;;;;;;;4.20;1.90;;;18.60;99.90;;;;;;4990970;28;20026;-76
2023/08/15 09:55:59;;;;;;;2.67;2.20;;;18.80;99.90;;;;;;4991706;28;20034;-77
2023/08/15 09:58:25;;;;;;;2.22;1.60;;;18.90;99.90;;;;;;4991579;28;20045;-77
2023/08/15 10:00:53;;;;;;;3.65;2.20;;;19.00;99.90;;;;;;4991804;28;20034;-76
2023/08/15 10:03:24;;;;;;;3.13;1.70;;;19.00;99.90;;;;;;4991667;28;20385;-77
2023/08/15 10:05:55;;;;;;;4.07;1.83;;;18.90;99.90;;;;;;4992030;28;20040;-75
2023/08/15 10:08:22;;;;;;;4.75;1.90;;;18.90;99.90;;;;;;4991808;28;20030;-75
2023/08/15 10:10:52;;;;;;;3.80;1.73;;;18.80;99.90;;;;;;4992312;28;20023;-75
2023/08/15 10:13:26;;;;;;;2.60;1.50;;;18.70;99.90;;;;;;4991401;28;20026;-78
2023/08/15 10:15:53;;;;;;;1.60;1.08;;;18.80;99.90;;;;;;4990739;28;20053;-78
2023/08/15 10:18:19;;;;;;;3.05;1.25;;;18.80;99.90;;;;;;4991318;28;20023;-78
2023/08/15 10:20:53;;;;;;;2.97;1.10;;;18.90;99.90;;;;;;4991936;28;20034;-77
2023/08/15 10:23:39;;;;;;;2.67;0.90;;;19.10;99.90;;;;;;4991805;28;20065;-78
2023/08/15 10:26:05;;;;;;;2.83;1.50;;;19.10;99.90;;;;;;4991906;28;20026;-79
2023/08/15 10:28:34;;;;;;;2.72;1.17;;;19.10;99.90;;;;;;4990954;28;20033;-76
2023/08/15 10:31:00;;;;;;;2.50;1.00;;;19.20;99.90;;;;;;4992284;28;20052;-77
2023/08/15 10:33:29;;;;;;;1.63;0.82;;;19.10;99.90;;;;;;4992469;28;20328;-76
2023/08/15 10:35:55;;;;;;;3.85;1.10;;;19.20;99.90;;;;;;4991350;28;20552;-77
2023/08/15 10:38:28;;;;;;;4.68;1.10;;;19.30;99.90;;;;;;4991327;28;20050;-78
2023/08/15 10:41:01;;;;;;;2.40;1.00;;;19.30;99.90;;;;;;4990264;28;20054;-77
2023/08/15 10:43:28;;;;;;;3.00;1.25;;;19.40;99.90;;;;;;4991244;28;20026;-78
2023/08/15 10:45:57;;;;;;;2.40;0.95;;;19.40;99.90;;;;;;4991241;28;20101;-78
2023/08/15 10:48:47;;;;;;;2.17;1.00;;;19.50;99.90;;;;;;4991114;28;20030;-77
2023/08/15 10:51:17;;;;;;;5.07;1.10;;;19.40;99.90;;;;;;4991673;28;20452;-78
2023/08/15 10:53:43;;;;;;;1.65;1.00;;;19.30;99.90;;;;;;4991315;28;20034;-77
2023/08/15 10:56:09;;;;;;;2.38;1.13;;;19.30;99.90;;;;;;4991636;28;20503;-77
2023/08/15 10:58:37;;;;;;;2.70;0.95;;;19.30;99.90;;;;;;4991267;28;20092;-78
2023/08/15 11:01:03;;;;;;;2.45;1.02;;;19.30;99.90;;;;;;4991657;28;20428;-79
2023/08/15 11:03:30;;;;;;;1.58;0.70;;;19.20;99.90;;;;;;4990868;28;20101;-78
2023/08/15 11:06:07;;;;;;;1.85;1.05;;;19.10;99.90;;;;;;4990132;28;20069;-77
2023/08/15 11:08:32;;;;;;;2.63;0.98;;;19.30;99.90;;;;;;4989684;28;20030;-77
2023/08/15 11:10:58;;;;;;;4.70;1.20;;;19.20;99.90;;;;;;4991047;28;20494;-76
2023/08/15 11:13:24;;;;;;;1.48;1.00;;;19.40;99.90;;;;;;4990822;28;20136;-77
2023/08/15 11:15:50;;;;;;;1.58;0.90;;;19.60;99.90;;;;;;4991278;28;20026;-77
2023/08/15 11:18:23;;;;;;;2.67;1.00;;;19.70;99.90;;;;;;4990748;28;20034;-77
2023/08/15 11:20:48;;;;;;;2.05;0.82;;;19.60;99.90;;;;;;4990651;28;20038;-78
2023/08/15 11:23:19;;;;;;;2.28;0.85;;;19.60;99.90;;;;;;4991410;28;20026;-78
2023/08/15 11:25:44;;;;;;;1.73;0.85;;;19.60;99.90;;;;;;4990751;28;20022;-78
2023/08/15 11:28:10;;;;;;;1.30;0.90;;;19.60;99.90;;;;;;4991222;28;20026;-78
2023/08/15 11:30:36;;;;;;;2.97;1.02;;;19.50;99.90;;;;;;4990873;28;20041;-78
2023/08/15 11:33:03;;;;;;;1.95;1.10;;;19.40;99.90;;;;;;4991500;28;20050;-78
2023/08/15 11:35:28;;;;;;;2.08;1.00;;;19.40;99.90;;;;;;4992550;28;20175;-78
2023/08/15 11:37:54;;;;;;;2.42;1.17;;;19.40;99.90;;;;;;4993132;28;20125;-77
2023/08/15 11:40:20;;;;;;;1.95;1.17;;;19.40;99.90;;;;;;4992670;28;20134;-77
2023/08/15 11:42:46;;;;;;;3.55;1.00;;;19.50;99.90;;;;;;4990852;28;20031;-78
2023/08/15 11:45:18;;;;;;;2.35;0.95;;;19.50;99.90;;;;;;4993201;28;20490;-79
2023/08/15 11:47:59;;;;;;;5.75;1.13;;;19.50;99.90;;;;;;4992171;28;20106;-79
2023/08/15 11:50:27;;;;;;;2.95;1.40;;;19.60;99.90;;;;;;4991413;28;20026;-78
2023/08/15 11:52:53;;;;;;;1.92;0.98;;;19.90;99.90;;;;;;4991485;28;20050;-78
2023/08/15 11:55:20;;;;;;;2.30;1.17;;;19.90;99.90;;;;;;4990994;28;20034;-78
2023/08/15 11:57:45;;;;;;;1.80;1.05;;;19.90;99.90;;;;;;4989189;28;20373;-78
2023/08/15 12:00:14;;;;;;;2.33;0.85;;;19.90;99.90;;;;;;4990479;28;20050;-78
2023/08/15 12:02:45;;;;;;;2.75;0.90;;;19.80;99.90;;;;;;4990460;28;20106;-78
2023/08/15 12:05:16;;;;;;;3.95;1.08;;;19.70;99.90;;;;;;4990745;28;20019;-77
2023/08/15 12:07:42;;;;;;;3.42;0.90;;;19.70;99.90;;;;;;4990428;28;20038;-76
2023/08/15 12:10:09;;;;;;;3.22;1.20;;;19.90;99.90;;;;;;4992729;28;20439;-78
2023/08/15 12:12:53;;;;;;;2.20;0.80;;;20.00;99.90;;;;;;4993764;28;20462;-78
2023/08/15 12:15:19;;;;;;;2.55;0.90;;;20.00;99.90;;;;;;4994458;28;20023;-78
2023/08/15 12:17:45;;;;;;;3.00;1.02;;;20.10;99.90;;;;;;4991358;28;20033;-78
2023/08/15 12:20:12;;;;;;;1.55;1.00;;;20.30;99.90;;;;;;4993797;28;20452;-77
2023/08/15 12:22:41;;;;;;;2.55;0.98;;;20.50;99.90;;;;;;4993045;28;20080;-78
2023/08/15 12:25:09;;;;;;;3.45;1.05;;;20.80;99.90;;;;;;4993925;28;20026;-76
2023/08/15 12:27:37;;;;;;;5.18;1.15;;;20.90;99.90;;;;;;4993549;28;20113;-77
2023/08/15 12:30:05;;;;;;;2.13;0.98;;;21.00;99.90;;;;;;4993780;28;20494;-77
2023/08/15 12:32:31;;;;;;;1.80;0.90;;;21.20;99.90;;;;;;4993314;28;20037;-77
2023/08/15 12:34:57;;;;;;;3.08;1.20;;;21.40;99.90;;;;;;4992977;28;20026;-77
2023/08/15 12:37:23;;;;;;;3.50;1.27;;;21.50;99.90;;;;;;4994592;28;20033;-77
2023/08/15 12:39:49;;;;;;;3.80;1.35;;;21.60;99.90;;;;;;4993734;28;20141;-77
2023/08/15 12:42:15;;;;;;;3.50;0.82;;;21.80;99.90;;;;;;4993201;28;20070;-77
2023/08/15 12:44:42;;;;;;;4.30;1.25;;;21.80;99.90;;;;;;4992701;28;20026;-77
2023/08/15 12:47:09;;;;;;;2.38;1.10;;;21.70;99.90;;;;;;4994503;28;20026;-77